sensor_id;sensor_type;location;lat;lon;timestamp;temperature;humidity
7530;DHT22;3806;52.270;10.544;2023-09-18T00:00:01;22.30;90.90
7530;DHT22;3806;52.270;10.544;2023-09-18T00:02:27;22.30;91.10
7530;DHT22;3806;52.270;10.544;2023-09-18T00:04:54;22.20;91.20
7530;DHT22;3806;52.270;10.544;2023-09-18T00:07:20;22.20;91.20
7530;DHT22;3806;52.270;10.544;2023-09-18T00:09:46;22.20;91.30
7530;DHT22;3806;52.270;10.544;2023-09-18T00:12:11;22.10;91.50
7530;DHT22;3806;52.270;10.544;2023-09-18T00:14:37;22.10;91.60
7530;DHT22;3806;52.270;10.544;2023-09-18T00:17:03;22.10;91.80
7530;DHT22;3806;52.270;10.544;2023-09-18T00:19:29;22.10;91.80
7530;DHT22;3806;52.270;10.544;2023-09-18T00:21:55;22.10;91.80
7530;DHT22;3806;52.270;10.544;2023-09-18T00:24:21;22.10;91.90
7530;DHT22;3806;52.270;10.544;2023-09-18T00:26:47;22.00;91.90
7530;DHT22;3806;52.270;10.544;2023-09-18T00:29:13;22.00;92.10
7530;DHT22;3806;52.270;10.544;2023-09-18T00:31:39;21.90;92.30
7530;DHT22;3806;52.270;10.544;2023-09-18T00:34:04;21.90;92.40
7530;DHT22;3806;52.270;10.544;2023-09-18T00:36:30;21.90;92.40
7530;DHT22;3806;52.270;10.544;2023-09-18T00:38:55;21.90;92.50
7530;DHT22;3806;52.270;10.544;2023-09-18T00:41:21;21.90;92.70
7530;DHT22;3806;52.270;10.544;2023-09-18T00:43:46;21.90;92.70
7530;DHT22;3806;52.270;10.544;2023-09-18T00:46:12;21.90;92.80
7530;DHT22;3806;52.270;10.544;2023-09-18T00:48:38;21.80;92.90
7530;DHT22;3806;52.270;10.544;2023-09-18T00:51:03;21.80;93.10
7530;DHT22;3806;52.270;10.544;2023-09-18T00:53:29;21.70;93.20
7530;DHT22;3806;52.270;10.544;2023-09-18T00:55:57;21.70;93.40
7530;DHT22;3806;52.270;10.544;2023-09-18T00:58:23;21.80;93.70
7530;DHT22;3806;52.270;10.544;2023-09-18T01:00:50;21.70;93.50
7530;DHT22;3806;52.270;10.544;2023-09-18T01:03:16;21.70;93.60
7530;DHT22;3806;52.270;10.544;2023-09-18T01:05:44;21.70;93.80
7530;DHT22;3806;52.270;10.544;2023-09-18T01:08:10;21.60;93.80
7530;DHT22;3806;52.270;10.544;2023-09-18T01:10:53;21.60;93.90
7530;DHT22;3806;52.270;10.544;2023-09-18T01:13:35;21.60;94.00
7530;DHT22;3806;52.270;10.544;2023-09-18T01:16:24;21.60;94.00
7530;DHT22;3806;52.270;10.544;2023-09-18T01:18:51;21.60;94.50
7530;DHT22;3806;52.270;10.544;2023-09-18T01:21:19;21.60;94.20
7530;DHT22;3806;52.270;10.544;2023-09-18T01:23:46;21.50;94.50
7530;DHT22;3806;52.270;10.544;2023-09-18T01:26:11;21.50;94.50
7530;DHT22;3806;52.270;10.544;2023-09-18T01:28:37;21.50;94.60
7530;DHT22;3806;52.270;10.544;2023-09-18T01:31:02;21.40;94.80
7530;DHT22;3806;52.270;10.544;2023-09-18T01:33:29;21.40;95.00
7530;DHT22;3806;52.270;10.544;2023-09-18T01:35:56;21.40;95.00
7530;DHT22;3806;52.270;10.544;2023-09-18T01:38:23;21.40;95.10
7530;DHT22;3806;52.270;10.544;2023-09-18T01:40:49;21.40;95.20
7530;DHT22;3806;52.270;10.544;2023-09-18T01:43:15;21.40;95.40
7530;DHT22;3806;52.270;10.544;2023-09-18T01:45:40;21.40;95.40
7530;DHT22;3806;52.270;10.544;2023-09-18T01:48:07;21.40;95.50
7530;DHT22;3806;52.270;10.544;2023-09-18T01:50:32;21.40;96.00
7530;DHT22;3806;52.270;10.544;2023-09-18T01:53:01;21.30;95.70
7530;DHT22;3806;52.270;10.544;2023-09-18T01:55:27;21.40;95.90
7530;DHT22;3806;52.270;10.544;2023-09-18T01:57:54;21.30;96.00
7530;DHT22;3806;52.270;10.544;2023-09-18T02:00:20;21.30;96.10
7530;DHT22;3806;52.270;10.544;2023-09-18T02:02:46;21.30;96.20
7530;DHT22;3806;52.270;10.544;2023-09-18T02:05:11;21.40;96.20
7530;DHT22;3806;52.270;10.544;2023-09-18T02:07:37;21.40;96.30
7530;DHT22;3806;52.270;10.544;2023-09-18T02:10:03;21.30;96.40
7530;DHT22;3806;52.270;10.544;2023-09-18T02:12:28;21.40;96.50
7530;DHT22;3806;52.270;10.544;2023-09-18T02:14:54;21.40;96.60
7530;DHT22;3806;52.270;10.544;2023-09-18T02:17:22;21.40;96.60
7530;DHT22;3806;52.270;10.544;2023-09-18T02:19:48;21.40;96.70
7530;DHT22;3806;52.270;10.544;2023-09-18T02:22:13;21.30;96.70
7530;DHT22;3806;52.270;10.544;2023-09-18T02:24:39;21.30;96.80
7530;DHT22;3806;52.270;10.544;2023-09-18T02:27:05;21.30;96.90
7530;DHT22;3806;52.270;10.544;2023-09-18T02:29:31;21.30;97.00
7530;DHT22;3806;52.270;10.544;2023-09-18T02:31:56;21.30;97.20
7530;DHT22;3806;52.270;10.544;2023-09-18T02:34:22;21.20;97.60
7530;DHT22;3806;52.270;10.544;2023-09-18T02:36:48;21.20;97.40
7530;DHT22;3806;52.270;10.544;2023-09-18T02:39:13;21.20;97.40
7530;DHT22;3806;52.270;10.544;2023-09-18T02:41:39;21.20;97.50
7530;DHT22;3806;52.270;10.544;2023-09-18T02:44:04;21.30;97.50
7530;DHT22;3806;52.270;10.544;2023-09-18T02:46:30;21.30;97.70
7530;DHT22;3806;52.270;10.544;2023-09-18T02:48:55;21.20;97.70
7530;DHT22;3806;52.270;10.544;2023-09-18T02:51:21;21.20;97.90
7530;DHT22;3806;52.270;10.544;2023-09-18T02:53:47;21.10;98.00
7530;DHT22;3806;52.270;10.544;2023-09-18T02:56:12;21.20;98.20
7530;DHT22;3806;52.270;10.544;2023-09-18T02:58:38;21.20;98.30
7530;DHT22;3806;52.270;10.544;2023-09-18T03:01:06;21.20;98.30
7530;DHT22;3806;52.270;10.544;2023-09-18T03:03:32;21.20;98.30
7530;DHT22;3806;52.270;10.544;2023-09-18T03:06:02;21.20;98.40
7530;DHT22;3806;52.270;10.544;2023-09-18T03:08:28;21.20;98.50
7530;DHT22;3806;52.270;10.544;2023-09-18T03:10:54;21.20;98.50
7530;DHT22;3806;52.270;10.544;2023-09-18T03:13:21;21.10;98.80
7530;DHT22;3806;52.270;10.544;2023-09-18T03:15:46;21.10;99.00
7530;DHT22;3806;52.270;10.544;2023-09-18T03:18:12;21.10;99.20
7530;DHT22;3806;52.270;10.544;2023-09-18T03:20:38;21.00;99.30
7530;DHT22;3806;52.270;10.544;2023-09-18T03:23:04;21.00;99.40
7530;DHT22;3806;52.270;10.544;2023-09-18T03:25:29;21.10;99.40
7530;DHT22;3806;52.270;10.544;2023-09-18T03:27:56;21.00;99.50
7530;DHT22;3806;52.270;10.544;2023-09-18T03:30:23;21.00;99.60
7530;DHT22;3806;52.270;10.544;2023-09-18T03:32:49;21.00;99.80
7530;DHT22;3806;52.270;10.544;2023-09-18T03:35:15;20.90;99.90
7530;DHT22;3806;52.270;10.544;2023-09-18T03:37:49;21.00;99.90
7530;DHT22;3806;52.270;10.544;2023-09-18T03:40:16;21.00;99.90
7530;DHT22;3806;52.270;10.544;2023-09-18T03:42:42;21.00;99.90
7530;DHT22;3806;52.270;10.544;2023-09-18T03:45:08;21.10;99.90
7530;DHT22;3806;52.270;10.544;2023-09-18T03:47:35;21.00;99.90
7530;DHT22;3806;52.270;10.544;2023-09-18T03:50:02;21.10;99.90
7530;DHT22;3806;52.270;10.544;2023-09-18T03:52:27;21.00;99.90
7530;DHT22;3806;52.270;10.544;2023-09-18T03:54:53;21.10;99.90
7530;DHT22;3806;52.270;10.544;2023-09-18T03:57:18;21.00;99.90
7530;DHT22;3806;52.270;10.544;2023-09-18T03:59:44;20.90;99.90
7530;DHT22;3806;52.270;10.544;2023-09-18T04:02:09;20.90;99.90
7530;DHT22;3806;52.270;10.544;2023-09-18T04:04:35;21.00;99.90
7530;DHT22;3806;52.270;10.544;2023-09-18T04:07:05;21.00;99.90
7530;DHT22;3806;52.270;10.544;2023-09-18T04:09:31;20.90;99.90
7530;DHT22;3806;52.270;10.544;2023-09-18T04:11:56;20.90;99.90
7530;DHT22;3806;52.270;10.544;2023-09-18T04:14:23;20.80;99.90
7530;DHT22;3806;52.270;10.544;2023-09-18T04:16:48;20.80;99.90
7530;DHT22;3806;52.270;10.544;2023-09-18T04:19:14;20.90;99.90
7530;DHT22;3806;52.270;10.544;2023-09-18T04:21:39;20.90;99.90
7530;DHT22;3806;52.270;10.544;2023-09-18T04:24:05;20.80;99.90
7530;DHT22;3806;52.270;10.544;2023-09-18T04:26:30;20.80;99.90
7530;DHT22;3806;52.270;10.544;2023-09-18T04:28:57;20.80;99.90
7530;DHT22;3806;52.270;10.544;2023-09-18T04:31:22;20.80;99.90
7530;DHT22;3806;52.270;10.544;2023-09-18T04:33:48;20.80;99.90
7530;DHT22;3806;52.270;10.544;2023-09-18T04:36:13;20.80;99.90
7530;DHT22;3806;52.270;10.544;2023-09-18T04:38:39;20.80;99.90
7530;DHT22;3806;52.270;10.544;2023-09-18T04:41:04;20.80;99.90
7530;DHT22;3806;52.270;10.544;2023-09-18T04:43:35;20.80;99.90
7530;DHT22;3806;52.270;10.544;2023-09-18T04:46:02;20.80;99.90
7530;DHT22;3806;52.270;10.544;2023-09-18T04:48:30;20.70;99.90
7530;DHT22;3806;52.270;10.544;2023-09-18T04:50:56;20.80;99.90
7530;DHT22;3806;52.270;10.544;2023-09-18T04:53:22;20.70;99.90
7530;DHT22;3806;52.270;10.544;2023-09-18T04:55:47;20.70;99.90
7530;DHT22;3806;52.270;10.544;2023-09-18T04:58:17;20.70;99.90
7530;DHT22;3806;52.270;10.544;2023-09-18T05:00:43;20.70;99.90
7530;DHT22;3806;52.270;10.544;2023-09-18T05:03:11;20.80;99.90
7530;DHT22;3806;52.270;10.544;2023-09-18T05:05:36;20.80;99.90
7530;DHT22;3806;52.270;10.544;2023-09-18T05:08:03;20.80;99.90
7530;DHT22;3806;52.270;10.544;2023-09-18T05:10:30;20.80;99.90
7530;DHT22;3806;52.270;10.544;2023-09-18T05:12:56;20.90;99.90
7530;DHT22;3806;52.270;10.544;2023-09-18T05:15:24;20.90;99.90
7530;DHT22;3806;52.270;10.544;2023-09-18T05:17:52;21.00;99.90
7530;DHT22;3806;52.270;10.544;2023-09-18T05:20:21;21.10;99.90
7530;DHT22;3806;52.270;10.544;2023-09-18T05:22:50;21.20;99.90
7530;DHT22;3806;52.270;10.544;2023-09-18T05:25:18;21.30;99.90
7530;DHT22;3806;52.270;10.544;2023-09-18T05:27:44;21.30;99.90
7530;DHT22;3806;52.270;10.544;2023-09-18T05:30:12;21.30;99.90
7530;DHT22;3806;52.270;10.544;2023-09-18T05:32:38;21.30;99.90
7530;DHT22;3806;52.270;10.544;2023-09-18T05:35:04;21.40;99.90
7530;DHT22;3806;52.270;10.544;2023-09-18T05:37:32;21.50;99.90
7530;DHT22;3806;52.270;10.544;2023-09-18T05:39:58;21.60;99.90
7530;DHT22;3806;52.270;10.544;2023-09-18T05:42:23;21.60;99.90
7530;DHT22;3806;52.270;10.544;2023-09-18T05:44:49;21.70;99.90
7530;DHT22;3806;52.270;10.544;2023-09-18T05:47:15;21.80;99.90
7530;DHT22;3806;52.270;10.544;2023-09-18T05:49:41;21.80;99.90
7530;DHT22;3806;52.270;10.544;2023-09-18T05:52:06;22.00;99.60
7530;DHT22;3806;52.270;10.544;2023-09-18T05:54:32;22.10;99.50
7530;DHT22;3806;52.270;10.544;2023-09-18T05:56:57;22.20;99.40
7530;DHT22;3806;52.270;10.544;2023-09-18T05:59:23;22.30;99.10
7530;DHT22;3806;52.270;10.544;2023-09-18T06:01:48;22.50;99.00
7530;DHT22;3806;52.270;10.544;2023-09-18T06:04:14;22.70;98.50
7530;DHT22;3806;52.270;10.544;2023-09-18T06:06:42;23.00;98.40
7530;DHT22;3806;52.270;10.544;2023-09-18T06:09:07;23.80;97.80
7530;DHT22;3806;52.270;10.544;2023-09-18T06:11:33;24.90;95.70
7530;DHT22;3806;52.270;10.544;2023-09-18T06:13:58;25.90;93.70
7530;DHT22;3806;52.270;10.544;2023-09-18T06:16:24;27.00;91.20
7530;DHT22;3806;52.270;10.544;2023-09-18T06:18:50;27.90;86.70
7530;DHT22;3806;52.270;10.544;2023-09-18T06:21:15;28.10;80.80
7530;DHT22;3806;52.270;10.544;2023-09-18T06:23:41;28.30;78.30
7530;DHT22;3806;52.270;10.544;2023-09-18T06:26:06;29.10;74.00
7530;DHT22;3806;52.270;10.544;2023-09-18T06:28:32;30.10;68.50
7530;DHT22;3806;52.270;10.544;2023-09-18T06:30:57;30.90;62.60
7530;DHT22;3806;52.270;10.544;2023-09-18T06:33:23;30.90;59.10
7530;DHT22;3806;52.270;10.544;2023-09-18T06:35:48;30.10;59.60
7530;DHT22;3806;52.270;10.544;2023-09-18T06:38:14;29.10;62.30
7530;DHT22;3806;52.270;10.544;2023-09-18T06:40:40;28.40;64.40
7530;DHT22;3806;52.270;10.544;2023-09-18T06:43:07;27.70;67.00
7530;DHT22;3806;52.270;10.544;2023-09-18T06:45:32;27.00;69.90
7530;DHT22;3806;52.270;10.544;2023-09-18T06:47:59;26.50;73.60
7530;DHT22;3806;52.270;10.544;2023-09-18T06:50:25;26.50;74.50
7530;DHT22;3806;52.270;10.544;2023-09-18T06:52:51;26.70;74.90
7530;DHT22;3806;52.270;10.544;2023-09-18T06:55:16;26.90;74.20
7530;DHT22;3806;52.270;10.544;2023-09-18T06:57:42;27.20;73.80
7530;DHT22;3806;52.270;10.544;2023-09-18T07:00:08;27.30;73.10
7530;DHT22;3806;52.270;10.544;2023-09-18T07:02:34;27.40;72.60
7530;DHT22;3806;52.270;10.544;2023-09-18T07:05:00;27.40;72.20
7530;DHT22;3806;52.270;10.544;2023-09-18T07:07:25;27.20;73.30
7530;DHT22;3806;52.270;10.544;2023-09-18T07:09:51;26.80;73.80
7530;DHT22;3806;52.270;10.544;2023-09-18T07:12:17;26.40;75.40
7530;DHT22;3806;52.270;10.544;2023-09-18T07:14:46;26.20;76.40
7530;DHT22;3806;52.270;10.544;2023-09-18T07:17:12;25.80;77.60
7530;DHT22;3806;52.270;10.544;2023-09-18T07:19:38;25.40;79.90
7530;DHT22;3806;52.270;10.544;2023-09-18T07:22:03;25.00;81.90
7530;DHT22;3806;52.270;10.544;2023-09-18T07:24:29;24.70;83.80
7530;DHT22;3806;52.270;10.544;2023-09-18T07:26:54;24.40;85.50
7530;DHT22;3806;52.270;10.544;2023-09-18T07:29:20;24.00;88.30
7530;DHT22;3806;52.270;10.544;2023-09-18T07:31:46;23.80;90.00
7530;DHT22;3806;52.270;10.544;2023-09-18T07:34:13;23.60;90.70
7530;DHT22;3806;52.270;10.544;2023-09-18T07:36:39;23.60;91.40
7530;DHT22;3806;52.270;10.544;2023-09-18T07:39:05;23.50;92.10
7530;DHT22;3806;52.270;10.544;2023-09-18T07:41:31;23.40;92.40
7530;DHT22;3806;52.270;10.544;2023-09-18T07:43:57;23.20;93.10
7530;DHT22;3806;52.270;10.544;2023-09-18T07:46:24;23.20;93.50
7530;DHT22;3806;52.270;10.544;2023-09-18T07:48:50;23.00;94.00
7530;DHT22;3806;52.270;10.544;2023-09-18T07:51:15;23.00;94.30
7530;DHT22;3806;52.270;10.544;2023-09-18T07:53:44;23.10;94.50
7530;DHT22;3806;52.270;10.544;2023-09-18T07:56:09;23.10;94.80
7530;DHT22;3806;52.270;10.544;2023-09-18T07:58:35;23.20;95.00
7530;DHT22;3806;52.270;10.544;2023-09-18T08:01:04;23.30;95.30
7530;DHT22;3806;52.270;10.544;2023-09-18T08:03:31;24.10;94.80
7530;DHT22;3806;52.270;10.544;2023-09-18T08:05:56;24.70;93.20
7530;DHT22;3806;52.270;10.544;2023-09-18T08:08:22;25.00;92.30
7530;DHT22;3806;52.270;10.544;2023-09-18T08:10:49;25.00;91.70
7530;DHT22;3806;52.270;10.544;2023-09-18T08:13:16;25.00;91.70
7530;DHT22;3806;52.270;10.544;2023-09-18T08:15:41;24.90;91.60
7530;DHT22;3806;52.270;10.544;2023-09-18T08:18:07;24.80;91.90
7530;DHT22;3806;52.270;10.544;2023-09-18T08:20:32;24.70;92.20
7530;DHT22;3806;52.270;10.544;2023-09-18T08:22:58;24.80;92.60
7530;DHT22;3806;52.270;10.544;2023-09-18T08:25:26;25.00;92.10
7530;DHT22;3806;52.270;10.544;2023-09-18T08:27:52;25.30;91.90
7530;DHT22;3806;52.270;10.544;2023-09-18T08:30:18;25.50;91.50
7530;DHT22;3806;52.270;10.544;2023-09-18T08:32:46;25.70;91.20
7530;DHT22;3806;52.270;10.544;2023-09-18T08:35:13;26.20;90.90
7530;DHT22;3806;52.270;10.544;2023-09-18T08:37:40;26.90;88.80
7530;DHT22;3806;52.270;10.544;2023-09-18T08:40:09;27.20;86.60
7530;DHT22;3806;52.270;10.544;2023-09-18T08:42:35;27.20;85.20
7530;DHT22;3806;52.270;10.544;2023-09-18T08:45:02;26.90;85.10
7530;DHT22;3806;52.270;10.544;2023-09-18T08:47:33;26.60;85.80
7530;DHT22;3806;52.270;10.544;2023-09-18T08:49:59;26.30;87.10
7530;DHT22;3806;52.270;10.544;2023-09-18T08:52:26;26.00;88.20
7530;DHT22;3806;52.270;10.544;2023-09-18T08:54:51;25.70;89.30
7530;DHT22;3806;52.270;10.544;2023-09-18T08:57:17;25.50;90.20
7530;DHT22;3806;52.270;10.544;2023-09-18T08:59:44;25.30;90.60
7530;DHT22;3806;52.270;10.544;2023-09-18T09:02:09;25.00;91.20
7530;DHT22;3806;52.270;10.544;2023-09-18T09:04:37;24.90;91.60
7530;DHT22;3806;52.270;10.544;2023-09-18T09:07:03;24.60;92.30
7530;DHT22;3806;52.270;10.544;2023-09-18T09:09:29;24.50;92.60
7530;DHT22;3806;52.270;10.544;2023-09-18T09:11:56;24.40;93.00
7530;DHT22;3806;52.270;10.544;2023-09-18T09:14:22;24.40;93.60
7530;DHT22;3806;52.270;10.544;2023-09-18T09:16:54;24.40;94.00
7530;DHT22;3806;52.270;10.544;2023-09-18T09:19:34;24.40;94.30
7530;DHT22;3806;52.270;10.544;2023-09-18T09:22:04;24.50;94.50
7530;DHT22;3806;52.270;10.544;2023-09-18T09:24:41;24.50;94.60
7530;DHT22;3806;52.270;10.544;2023-09-18T09:27:07;24.60;94.80
7530;DHT22;3806;52.270;10.544;2023-09-18T09:29:34;24.60;94.90
7530;DHT22;3806;52.270;10.544;2023-09-18T09:32:13;24.60;95.00
7530;DHT22;3806;52.270;10.544;2023-09-18T09:34:41;24.80;94.70
7530;DHT22;3806;52.270;10.544;2023-09-18T09:37:07;25.00;94.50
7530;DHT22;3806;52.270;10.544;2023-09-18T09:39:33;25.10;94.20
7530;DHT22;3806;52.270;10.544;2023-09-18T09:42:01;25.10;92.80
7530;DHT22;3806;52.270;10.544;2023-09-18T09:44:31;25.00;92.60
7530;DHT22;3806;52.270;10.544;2023-09-18T09:46:59;24.90;92.10
7530;DHT22;3806;52.270;10.544;2023-09-18T09:49:25;24.80;92.00
7530;DHT22;3806;52.270;10.544;2023-09-18T09:51:53;24.90;91.90
7530;DHT22;3806;52.270;10.544;2023-09-18T09:54:32;24.90;91.70
7530;DHT22;3806;52.270;10.544;2023-09-18T09:57:02;25.00;91.60
7530;DHT22;3806;52.270;10.544;2023-09-18T09:59:28;25.00;91.30
7530;DHT22;3806;52.270;10.544;2023-09-18T10:01:55;25.10;91.10
7530;DHT22;3806;52.270;10.544;2023-09-18T10:04:26;25.20;90.90
7530;DHT22;3806;52.270;10.544;2023-09-18T10:06:56;25.30;90.80
7530;DHT22;3806;52.270;10.544;2023-09-18T10:09:26;25.40;90.60
7530;DHT22;3806;52.270;10.544;2023-09-18T10:11:54;25.40;90.50
7530;DHT22;3806;52.270;10.544;2023-09-18T10:14:32;25.50;90.40
7530;DHT22;3806;52.270;10.544;2023-09-18T10:17:09;25.70;90.40
7530;DHT22;3806;52.270;10.544;2023-09-18T10:19:45;25.80;90.20
7530;DHT22;3806;52.270;10.544;2023-09-18T10:22:34;26.00;88.70
7530;DHT22;3806;52.270;10.544;2023-09-18T10:25:15;26.20;87.90
7530;DHT22;3806;52.270;10.544;2023-09-18T10:27:48;26.10;88.20
7530;DHT22;3806;52.270;10.544;2023-09-18T10:30:15;26.00;88.30
7530;DHT22;3806;52.270;10.544;2023-09-18T10:32:44;25.90;88.70
7530;DHT22;3806;52.270;10.544;2023-09-18T10:35:11;25.70;89.10
7530;DHT22;3806;52.270;10.544;2023-09-18T10:37:38;25.50;90.10
7530;DHT22;3806;52.270;10.544;2023-09-18T10:40:05;25.30;90.50
7530;DHT22;3806;52.270;10.544;2023-09-18T10:42:34;25.20;90.80
7530;DHT22;3806;52.270;10.544;2023-09-18T10:45:01;25.10;91.10
7530;DHT22;3806;52.270;10.544;2023-09-18T10:47:30;25.00;91.50
7530;DHT22;3806;52.270;10.544;2023-09-18T10:49:56;24.90;91.80
7530;DHT22;3806;52.270;10.544;2023-09-18T10:52:22;24.90;91.70
7530;DHT22;3806;52.270;10.544;2023-09-18T10:54:47;24.90;91.80
7530;DHT22;3806;52.270;10.544;2023-09-18T10:57:13;24.90;91.90
7530;DHT22;3806;52.270;10.544;2023-09-18T10:59:46;25.00;92.30
7530;DHT22;3806;52.270;10.544;2023-09-18T11:02:16;25.00;92.20
7530;DHT22;3806;52.270;10.544;2023-09-18T11:04:42;25.10;92.20
7530;DHT22;3806;52.270;10.544;2023-09-18T11:07:08;25.10;92.00
7530;DHT22;3806;52.270;10.544;2023-09-18T11:09:42;25.20;91.80
7530;DHT22;3806;52.270;10.544;2023-09-18T11:12:13;25.30;91.70
7530;DHT22;3806;52.270;10.544;2023-09-18T11:20:18;25.60;91.10
7530;DHT22;3806;52.270;10.544;2023-09-18T11:23:16;25.70;90.70
7530;DHT22;3806;52.270;10.544;2023-09-18T11:25:43;25.70;90.70
7530;DHT22;3806;52.270;10.544;2023-09-18T11:30:54;25.60;90.80
7530;DHT22;3806;52.270;10.544;2023-09-18T11:36:08;25.70;90.70
7530;DHT22;3806;52.270;10.544;2023-09-18T11:39:00;25.70;90.50
7530;DHT22;3806;52.270;10.544;2023-09-18T11:41:30;25.70;90.30
7530;DHT22;3806;52.270;10.544;2023-09-18T11:46:46;25.90;90.30
7530;DHT22;3806;52.270;10.544;2023-09-18T11:49:14;25.90;90.20
7530;DHT22;3806;52.270;10.544;2023-09-18T11:51:40;25.80;90.20
7530;DHT22;3806;52.270;10.544;2023-09-18T11:54:07;25.70;90.10
7530;DHT22;3806;52.270;10.544;2023-09-18T11:56:33;25.70;90.20
7530;DHT22;3806;52.270;10.544;2023-09-18T11:58:59;25.80;90.40
7530;DHT22;3806;52.270;10.544;2023-09-18T12:01:25;25.80;90.90
7530;DHT22;3806;52.270;10.544;2023-09-18T12:04:01;25.70;90.40
7530;DHT22;3806;52.270;10.544;2023-09-18T12:06:27;25.70;90.50
7530;DHT22;3806;52.270;10.544;2023-09-18T12:08:53;25.60;90.50
7530;DHT22;3806;52.270;10.544;2023-09-18T12:11:19;25.50;90.50
7530;DHT22;3806;52.270;10.544;2023-09-18T12:13:47;25.50;90.70
7530;DHT22;3806;52.270;10.544;2023-09-18T12:16:15;25.50;90.70
7530;DHT22;3806;52.270;10.544;2023-09-18T12:18:50;25.50;90.80
7530;DHT22;3806;52.270;10.544;2023-09-18T12:21:16;25.40;90.70
7530;DHT22;3806;52.270;10.544;2023-09-18T12:23:45;25.40;90.90
7530;DHT22;3806;52.270;10.544;2023-09-18T12:26:12;25.40;90.90
7530;DHT22;3806;52.270;10.544;2023-09-18T12:28:44;25.40;90.70
7530;DHT22;3806;52.270;10.544;2023-09-18T12:31:13;25.40;90.80
7530;DHT22;3806;52.270;10.544;2023-09-18T12:33:40;25.50;90.70
7530;DHT22;3806;52.270;10.544;2023-09-18T12:36:07;25.50;90.60
7530;DHT22;3806;52.270;10.544;2023-09-18T12:38:33;25.50;90.60
7530;DHT22;3806;52.270;10.544;2023-09-18T12:40:59;25.30;90.70
7530;DHT22;3806;52.270;10.544;2023-09-18T12:43:39;25.30;90.90
7530;DHT22;3806;52.270;10.544;2023-09-18T12:46:06;25.20;91.20
7530;DHT22;3806;52.270;10.544;2023-09-18T12:48:32;25.10;91.50
7530;DHT22;3806;52.270;10.544;2023-09-18T12:51:07;25.00;91.60
7530;DHT22;3806;52.270;10.544;2023-09-18T12:53:33;24.90;91.80
7530;DHT22;3806;52.270;10.544;2023-09-18T12:56:11;24.90;92.00
7530;DHT22;3806;52.270;10.544;2023-09-18T12:58:41;24.90;92.10
7530;DHT22;3806;52.270;10.544;2023-09-18T13:01:08;25.00;92.10
7530;DHT22;3806;52.270;10.544;2023-09-18T13:03:45;24.90;92.10
7530;DHT22;3806;52.270;10.544;2023-09-18T13:06:15;24.90;92.30
7530;DHT22;3806;52.270;10.544;2023-09-18T13:08:42;24.80;92.50
7530;DHT22;3806;52.270;10.544;2023-09-18T13:11:08;24.80;92.70
7530;DHT22;3806;52.270;10.544;2023-09-18T13:13:36;24.80;92.60
7530;DHT22;3806;52.270;10.544;2023-09-18T13:16:05;24.90;92.80
7530;DHT22;3806;52.270;10.544;2023-09-18T13:18:31;24.90;92.70
7530;DHT22;3806;52.270;10.544;2023-09-18T13:20:57;24.80;92.30
7530;DHT22;3806;52.270;10.544;2023-09-18T13:23:28;24.80;92.10
7530;DHT22;3806;52.270;10.544;2023-09-18T13:25:59;24.80;91.70
7530;DHT22;3806;52.270;10.544;2023-09-18T13:28:24;24.80;91.90
7530;DHT22;3806;52.270;10.544;2023-09-18T13:30:50;24.90;91.90
7530;DHT22;3806;52.270;10.544;2023-09-18T13:33:17;24.90;92.00
7530;DHT22;3806;52.270;10.544;2023-09-18T13:35:44;24.90;92.20
7530;DHT22;3806;52.270;10.544;2023-09-18T13:38:11;25.00;92.40
7530;DHT22;3806;52.270;10.544;2023-09-18T13:40:45;25.00;92.70
7530;DHT22;3806;52.270;10.544;2023-09-18T13:43:11;25.00;92.70
7530;DHT22;3806;52.270;10.544;2023-09-18T13:45:38;24.90;92.30
7530;DHT22;3806;52.270;10.544;2023-09-18T13:48:04;24.80;92.10
7530;DHT22;3806;52.270;10.544;2023-09-18T13:50:30;24.80;92.60
7530;DHT22;3806;52.270;10.544;2023-09-18T13:52:56;24.80;92.30
7530;DHT22;3806;52.270;10.544;2023-09-18T13:55:22;24.80;92.20
7530;DHT22;3806;52.270;10.544;2023-09-18T13:57:48;24.80;92.30
7530;DHT22;3806;52.270;10.544;2023-09-18T14:00:14;24.80;92.10
7530;DHT22;3806;52.270;10.544;2023-09-18T14:02:40;24.80;92.10
7530;DHT22;3806;52.270;10.544;2023-09-18T14:05:07;24.70;92.10
7530;DHT22;3806;52.270;10.544;2023-09-18T14:07:33;24.70;92.20
7530;DHT22;3806;52.270;10.544;2023-09-18T14:09:58;24.70;92.40
7530;DHT22;3806;52.270;10.544;2023-09-18T14:12:25;24.60;92.20
7530;DHT22;3806;52.270;10.544;2023-09-18T14:14:50;24.60;92.50
7530;DHT22;3806;52.270;10.544;2023-09-18T14:17:16;24.60;92.30
7530;DHT22;3806;52.270;10.544;2023-09-18T14:19:43;24.70;92.40
7530;DHT22;3806;52.270;10.544;2023-09-18T14:22:09;24.70;92.50
7530;DHT22;3806;52.270;10.544;2023-09-18T14:24:35;24.70;92.60
7530;DHT22;3806;52.270;10.544;2023-09-18T14:27:01;24.80;92.60
7530;DHT22;3806;52.270;10.544;2023-09-18T14:29:27;24.80;92.90
7530;DHT22;3806;52.270;10.544;2023-09-18T14:31:53;24.80;93.00
7530;DHT22;3806;52.270;10.544;2023-09-18T14:34:19;24.70;93.00
7530;DHT22;3806;52.270;10.544;2023-09-18T14:36:44;24.70;93.00
7530;DHT22;3806;52.270;10.544;2023-09-18T14:39:11;24.60;93.00
7530;DHT22;3806;52.270;10.544;2023-09-18T14:41:37;24.50;93.20
7530;DHT22;3806;52.270;10.544;2023-09-18T14:44:07;24.60;93.30
7530;DHT22;3806;52.270;10.544;2023-09-18T14:46:34;24.60;93.20
7530;DHT22;3806;52.270;10.544;2023-09-18T14:49:01;24.50;93.00
7530;DHT22;3806;52.270;10.544;2023-09-18T14:51:29;24.50;93.10
7530;DHT22;3806;52.270;10.544;2023-09-18T14:53:55;24.50;93.20
7530;DHT22;3806;52.270;10.544;2023-09-18T14:56:21;24.50;93.00
7530;DHT22;3806;52.270;10.544;2023-09-18T14:58:46;24.50;93.00
7530;DHT22;3806;52.270;10.544;2023-09-18T15:01:12;24.50;92.80
7530;DHT22;3806;52.270;10.544;2023-09-18T15:03:39;24.40;92.80
7530;DHT22;3806;52.270;10.544;2023-09-18T15:06:05;24.40;92.80
7530;DHT22;3806;52.270;10.544;2023-09-18T15:08:33;24.30;92.70
7530;DHT22;3806;52.270;10.544;2023-09-18T15:10:58;24.30;92.80
7530;DHT22;3806;52.270;10.544;2023-09-18T15:13:24;24.30;92.80
7530;DHT22;3806;52.270;10.544;2023-09-18T15:15:49;24.20;92.90
7530;DHT22;3806;52.270;10.544;2023-09-18T15:18:16;24.20;92.90
7530;DHT22;3806;52.270;10.544;2023-09-18T15:20:41;24.10;92.90
7530;DHT22;3806;52.270;10.544;2023-09-18T15:23:07;24.10;92.90
7530;DHT22;3806;52.270;10.544;2023-09-18T15:25:33;24.10;92.90
7530;DHT22;3806;52.270;10.544;2023-09-18T15:28:04;24.10;93.20
7530;DHT22;3806;52.270;10.544;2023-09-18T15:30:31;24.00;92.90
7530;DHT22;3806;52.270;10.544;2023-09-18T15:32:56;24.00;92.90
7530;DHT22;3806;52.270;10.544;2023-09-18T15:35:23;24.00;92.90
7530;DHT22;3806;52.270;10.544;2023-09-18T15:37:53;24.00;92.90
7530;DHT22;3806;52.270;10.544;2023-09-18T15:40:20;23.90;93.10
7530;DHT22;3806;52.270;10.544;2023-09-18T15:42:46;23.90;93.00
7530;DHT22;3806;52.270;10.544;2023-09-18T15:45:13;23.90;93.00
7530;DHT22;3806;52.270;10.544;2023-09-18T15:47:39;23.80;93.10
7530;DHT22;3806;52.270;10.544;2023-09-18T15:50:06;23.80;93.20
7530;DHT22;3806;52.270;10.544;2023-09-18T15:52:32;23.80;93.20
7530;DHT22;3806;52.270;10.544;2023-09-18T15:54:58;23.80;93.20
7530;DHT22;3806;52.270;10.544;2023-09-18T15:57:34;23.70;93.20